Pays
Station

 

Conditions  météo  pour  International Falls, Falls International Airport  -  Etats-Unis    Etats-Unis

  
1 °C
    
 
 

METAR pour International Falls, Falls International Airport :

KINL 142355Z AUTO 17008KT 10SM CLR 01/M06 A2995 RMK AO2 SLP164 T00111056 10011 21006 56041

 

Voici le bulletin pour International Falls, Falls International Airport - Etats-Unis.
 
Le bulletin a été fait il y a 27 minutes, à 23:55 UTC .
Le vent soufflait à la vitesse de 4.1 mètres par seconde de Sud (170°).
 
La température était de 1 °C, avec un point de rosée à -6 °C.
La température ressentie était de -3 °C.
 
La pression atmosphérique était de 1014 hPa.
L'humidité relative était de 59.4%.
 
Le ciel était clair.
 
La visibilité globale était de 16.1 kilomètres.
 

 
 
 

Pays :   A   B   C   D   E   F   G   H   I   J   K   L   M   N   O   P   Q   R   S   T   U   V   W   Y   Z

 

Partenaires :  Info Météo avec Met'info
Météo Marine avec MeteoMarine.net
Infos Site  |  Infos Légales  |  Crédits  |  Confidentialité
Contactez-nous  |  Ajouter aux favoris
© 2013-2018 METAR - Tous droits réservés